| time (UTC) | temp F | wind direction | speed MPH | gust MPH | rain 1hr in | rain 24hr in | rain mn in | humidity % | barometer mb |
| 20260506172521 | 65 | 0 | 0.0 | 6.0 | 0.04 | 0.08 | 0.08 | 84 | 1007.3 |
| 20260506172021 | 65 | 160 | 1.0 | 6.0 | 0.04 | 0.08 | 0.08 | 83 | 1007.4 |
| 20260506171545 | 65 | 213 | 1.0 | 6.0 | 0.05 | 0.08 | 0.08 | 83 | 1007.3 |
| 20260506171021 | 65 | 216 | 1.0 | 6.0 | 0.04 | 0.07 | 0.07 | 83 | 1007.2 |
| 20260506170523 | 65 | 0 | 0.0 | 5.0 | 0.05 | 0.07 | 0.07 | 82 | 1007.3 |
| 20260506170043 | 65 | 0 | 1.0 | 5.0 | 0.06 | 0.07 | 0.07 | 82 | 1007.3 |
| 20260506165523 | 65 | 0 | 0.0 | 5.0 | 0.06 | 0.06 | 0.06 | 82 | 1007.3 |
| 20260506165022 | 66 | 0 | 0.0 | 5.0 | 0.06 | 0.06 | 0.06 | 82 | 1007.4 |
| 20260506164538 | 66 | 0 | 0.0 | 2.0 | 0.06 | 0.06 | 0.06 | 81 | 1007.6 |
| 20260506164023 | 66 | 0 | 0.0 | 2.0 | 0.06 | 0.06 | 0.06 | 81 | 1007.9 |
| 20260506163521 | 66 | 0 | 0.0 | 2.0 | 0.05 | 0.05 | 0.05 | 80 | 1008.0 |
| 20260506163039 | 66 | 0 | 0.0 | 2.0 | 0.05 | 0.05 | 0.05 | 80 | 1008.2 |
| 20260506162521 | 66 | 0 | 0.0 | 2.0 | 0.04 | 0.04 | 0.04 | 79 | 1008.3 |
| 20260506162022 | 66 | 0 | 0.0 | 3.0 | 0.04 | 0.04 | 0.04 | 79 | 1008.5 |
| 20260506161539 | 67 | 0 | 0.0 | 3.0 | 0.03 | 0.03 | 0.03 | 78 | 1008.6 |
| 20260506161021 | 67 | 0 | 0.0 | 4.0 | 0.03 | 0.03 | 0.03 | 77 | 1008.6 |
| 20260506160521 | 67 | 0 | 0.0 | 6.0 | 0.02 | 0.02 | 0.02 | 76 | 1008.6 |
| 20260506160037 | 67 | 227 | 0.0 | 6.0 | 0.01 | 0.01 | 0.01 | 76 | 1008.8 |
| 20260506155521 | 67 | 191 | 2.0 | 7.0 | 0.00 | 0.00 | 0.00 | 74 | 1008.8 |
| 20260506155021 | 67 | 232 | 1.0 | 7.0 | 0.00 | 0.00 | 0.00 | 74 | 1008.8 |
| 20260506154539 | 68 | 192 | 1.0 | 7.0 | 0.00 | 0.00 | 0.00 | 73 | 1008.7 |
| 20260506154024 | 68 | 245 | 2.0 | 9.0 | 0.00 | 0.00 | 0.00 | 72 | 1008.7 |
| 20260506153521 | 68 | 219 | 1.0 | 9.0 | 0.00 | 0.00 | 0.00 | 72 | 1008.5 |
| 20260506153041 | 69 | 214 | 3.0 | 9.0 | 0.00 | 0.00 | 0.00 | 71 | 1008.7 |
| 20260506152521 | 69 | 213 | 2.0 | 9.0 | 0.00 | 0.00 | 0.00 | 71 | 1008.7 |
| 20260506152021 | 69 | 217 | 2.0 | 9.0 | 0.00 | 0.00 | 0.00 | 70 | 1008.7 |
| 20260506151541 | 69 | 159 | 2.0 | 11.0 | 0.00 | 0.00 | 0.00 | 69 | 1008.7 |
| 20260506151021 | 69 | 223 | 2.0 | 12.0 | 0.00 | 0.00 | 0.00 | 68 | 1008.4 |
| 20260506150521 | 69 | 209 | 3.0 | 12.0 | 0.00 | 0.00 | 0.00 | 68 | 1008.5 |
| 20260506150037 | 70 | 71 | 3.0 | 12.0 | 0.00 | 0.00 | 0.00 | 67 | 1008.5 |
| 20260506145522 | 70 | 252 | 2.0 | 11.0 | 0.00 | 0.00 | 0.00 | 67 | 1008.6 |
| 20260506145022 | 70 | 199 | 3.0 | 11.0 | 0.00 | 0.00 | 0.00 | 66 | 1008.7 |
| 20260506144558 | 71 | 34 | 2.0 | 13.0 | 0.00 | 0.00 | 0.00 | 66 | 1008.7 |
| 20260506144021 | 71 | 159 | 4.0 | 13.0 | 0.00 | 0.00 | 0.00 | 65 | 1008.7 |
| 20260506143521 | 71 | 310 | 4.0 | 10.0 | 0.00 | 0.00 | 0.00 | 65 | 1008.7 |
| 20260506143037 | 71 | 319 | 1.0 | 10.0 | 0.00 | 0.00 | 0.00 | 66 | 1008.7 |
| 20260506142522 | 71 | 248 | 3.0 | 10.0 | 0.00 | 0.00 | 0.00 | 66 | 1008.7 |
| 20260506142021 | 70 | 209 | 3.0 | 7.0 | 0.00 | 0.00 | 0.00 | 67 | 1008.7 |
| 20260506141543 | 70 | 211 | 1.0 | 10.0 | 0.00 | 0.00 | 0.00 | 68 | 1008.6 |
| 20260506141021 | 69 | 0 | 3.0 | 10.0 | 0.00 | 0.00 | 0.00 | 67 | 1008.5 |
| 20260506140521 | 69 | 217 | 1.0 | 11.0 | 0.00 | 0.00 | 0.00 | 67 | 1008.6 |
| 20260506140042 | 69 | 223 | 2.0 | 11.0 | 0.00 | 0.00 | 0.00 | 67 | 1008.6 |
| 20260506135520 | 69 | 277 | 2.0 | 11.0 | 0.00 | 0.00 | 0.00 | 67 | 1008.5 |
| 20260506135023 | 69 | 133 | 1.0 | 11.0 | 0.00 | 0.00 | 0.00 | 67 | 1008.6 |
| 20260506134540 | 70 | 208 | 2.0 | 11.0 | 0.00 | 0.00 | 0.00 | 67 | 1008.6 |
| 20260506134022 | 70 | 261 | 2.0 | 11.0 | 0.00 | 0.00 | 0.00 | 67 | 1008.6 |
| 20260506133520 | 69 | 0 | 1.0 | 8.0 | 0.00 | 0.00 | 0.00 | 68 | 1008.6 |
| 20260506133045 | 69 | 196 | 2.0 | 11.0 | 0.00 | 0.00 | 0.00 | 67 | 1008.8 |
| 20260506132524 | 69 | 211 | 3.0 | 11.0 | 0.00 | 0.00 | 0.00 | 68 | 1008.8 |
| 20260506132021 | 69 | 94 | 4.0 | 9.0 | 0.00 | 0.00 | 0.00 | 68 | 1008.8 |
| 20260506131538 | 69 | 148 | 2.0 | 11.0 | 0.00 | 0.00 | 0.00 | 68 | 1009.0 |
| 20260506131021 | 69 | 130 | 2.0 | 11.0 | 0.00 | 0.00 | 0.00 | 68 | 1008.8 |
| 20260506130522 | 68 | 192 | 3.0 | 11.0 | 0.00 | 0.00 | 0.00 | 68 | 1008.8 |
| 20260506130038 | 69 | 254 | 3.0 | 11.0 | 0.00 | 0.00 | 0.00 | 68 | 1009.0 |
| 20260506125521 | 69 | 260 | 4.0 | 11.0 | 0.00 | 0.00 | 0.00 | 68 | 1008.8 |
| 20260506125021 | 69 | 223 | 2.0 | 11.0 | 0.00 | 0.00 | 0.00 | 69 | 1008.8 |
| 20260506124539 | 68 | 231 | 2.0 | 8.0 | 0.00 | 0.00 | 0.00 | 69 | 1008.6 |
| 20260506124021 | 68 | 223 | 3.0 | 8.0 | 0.00 | 0.00 | 0.00 | 69 | 1008.5 |
| 20260506123524 | 68 | 244 | 2.0 | 8.0 | 0.00 | 0.00 | 0.00 | 70 | 1008.3 |
| 20260506123041 | 68 | 174 | 2.0 | 9.0 | 0.00 | 0.00 | 0.00 | 70 | 1008.4 |
| 20260506122522 | 67 | 0 | 2.0 | 9.0 | 0.00 | 0.00 | 0.00 | 71 | 1008.5 |
| 20260506122021 | 67 | 250 | 2.0 | 8.0 | 0.00 | 0.00 | 0.00 | 71 | 1008.7 |
| 20260506121540 | 67 | 212 | 1.0 | 12.0 | 0.00 | 0.00 | 0.00 | 72 | 1008.8 |
| 20260506121021 | 67 | 221 | 4.0 | 12.0 | 0.00 | 0.00 | 0.00 | 72 | 1008.7 |
| 20260506120521 | 67 | 211 | 2.0 | 9.0 | 0.00 | 0.00 | 0.00 | 72 | 1008.8 |
| 20260506120038 | 67 | 0 | 2.0 | 9.0 | 0.00 | 0.00 | 0.00 | 72 | 1008.7 |
| 20260506115523 | 67 | 0 | 2.0 | 9.0 | 0.00 | 0.00 | 0.00 | 72 | 1008.8 |
| 20260506115021 | 67 | 220 | 1.0 | 10.0 | 0.00 | 0.00 | 0.00 | 72 | 1008.8 |
| 20260506114537 | 67 | 0 | 3.0 | 10.0 | 0.00 | 0.00 | 0.00 | 72 | 1009.1 |
| 20260506114021 | 67 | 212 | 3.0 | 8.0 | 0.00 | 0.00 | 0.00 | 73 | 1009.1 |
| 20260506113521 | 66 | 171 | 2.0 | 8.0 | 0.00 | 0.00 | 0.00 | 73 | 1009.1 |
| 20260506113037 | 66 | 261 | 2.0 | 15.0 | 0.00 | 0.00 | 0.00 | 73 | 1008.8 |
| 20260506112521 | 66 | 200 | 2.0 | 15.0 | 0.00 | 0.00 | 0.00 | 74 | 1008.8 |
| 20260506112021 | 66 | 0 | 1.0 | 11.0 | 0.00 | 0.00 | 0.00 | 75 | 1008.8 |
| 20260506111535 | 66 | 219 | 2.0 | 11.0 | 0.00 | 0.00 | 0.00 | 75 | 1008.7 |
| 20260506111021 | 65 | 145 | 1.0 | 10.0 | 0.00 | 0.00 | 0.00 | 75 | 1008.9 |
| 20260506110521 | 65 | 219 | 1.0 | 5.0 | 0.00 | 0.00 | 0.00 | 76 | 1008.8 |
| 20260506110043 | 65 | 0 | 1.0 | 6.0 | 0.00 | 0.00 | 0.00 | 76 | 1008.8 |
| 20260506105521 | 65 | 195 | 1.0 | 6.0 | 0.00 | 0.00 | 0.00 | 76 | 1008.6 |
| 20260506105023 | 64 | 172 | 1.0 | 5.0 | 0.00 | 0.00 | 0.00 | 77 | 1008.5 |
| 20260506104542 | 64 | 194 | 1.0 | 8.0 | 0.00 | 0.00 | 0.00 | 77 | 1008.6 |
| 20260506104023 | 64 | 188 | 0.0 | 9.0 | 0.00 | 0.00 | 0.00 | 77 | 1008.6 |
| 20260506103523 | 64 | 0 | 0.0 | 9.0 | 0.00 | 0.00 | 0.00 | 77 | 1008.6 |
| 20260506103040 | 64 | 170 | 1.0 | 6.0 | 0.00 | 0.00 | 0.00 | 77 | 1008.6 |
| 20260506102522 | 64 | 0 | 0.0 | 4.0 | 0.00 | 0.00 | 0.00 | 76 | 1008.7 |
| 20260506102022 | 64 | 0 | 0.0 | 4.0 | 0.00 | 0.00 | 0.00 | 76 | 1008.7 |
| 20260506101537 | 64 | 0 | 0.0 | 4.0 | 0.00 | 0.00 | 0.00 | 76 | 1008.7 |
| 20260506101021 | 64 | 0 | 1.0 | 5.0 | 0.00 | 0.00 | 0.00 | 76 | 1008.6 |
| 20260506100524 | 64 | 0 | 1.0 | 5.0 | 0.00 | 0.00 | 0.00 | 76 | 1008.6 |
| 20260506100036 | 64 | 211 | 0.0 | 4.0 | 0.00 | 0.00 | 0.00 | 77 | 1008.5 |
| 20260506095521 | 64 | 216 | 0.0 | 5.0 | 0.00 | 0.00 | 0.00 | 77 | 1008.4 |
| 20260506095021 | 64 | 202 | 1.0 | 5.0 | 0.00 | 0.00 | 0.00 | 77 | 1008.4 |
| 20260506094536 | 64 | 223 | 0.0 | 6.0 | 0.00 | 0.00 | 0.00 | 77 | 1008.4 |
| 20260506094022 | 64 | 0 | 0.0 | 6.0 | 0.00 | 0.00 | 0.00 | 77 | 1008.4 |
| 20260506093522 | 64 | 242 | 0.0 | 7.0 | 0.00 | 0.00 | 0.00 | 77 | 1008.3 |
| 20260506093043 | 64 | 0 | 1.0 | 7.0 | 0.00 | 0.00 | 0.00 | 77 | 1008.5 |
| 20260506092521 | 64 | 0 | 1.0 | 5.0 | 0.00 | 0.00 | 0.00 | 77 | 1008.6 |
| 20260506092021 | 64 | 196 | 1.0 | 4.0 | 0.00 | 0.00 | 0.00 | 76 | 1008.5 |
| 20260506091543 | 64 | 0 | 0.0 | 4.0 | 0.00 | 0.00 | 0.00 | 76 | 1008.5 |
| 20260506091021 | 64 | 188 | 2.0 | 6.0 | 0.00 | 0.00 | 0.00 | 76 | 1008.7 |
| 20260506090521 | 64 | 223 | 0.0 | 6.0 | 0.00 | 0.00 | 0.00 | 76 | 1008.7 |
| 20260506090040 | 65 | 0 | 0.0 | 3.0 | 0.00 | 0.00 | 0.00 | 76 | 1008.7 |
| 20260506085521 | 65 | 217 | 0.0 | 4.0 | 0.00 | 0.00 | 0.00 | 76 | 1008.6 |
| 20260506085020 | 65 | 0 | 0.0 | 4.0 | 0.00 | 0.00 | 0.00 | 75 | 1008.7 |
| 20260506084538 | 65 | 0 | 0.0 | 4.0 | 0.00 | 0.00 | 0.00 | 75 | 1008.7 |
| 20260506084022 | 65 | 0 | 0.0 | 4.0 | 0.00 | 0.00 | 0.00 | 75 | 1008.8 |
| 20260506083522 | 65 | 0 | 0.0 | 4.0 | 0.00 | 0.00 | 0.00 | 75 | 1008.8 |
| 20260506083038 | 65 | 0 | 0.0 | 4.0 | 0.00 | 0.00 | 0.00 | 75 | 1008.8 |
| 20260506082521 | 65 | 0 | 0.0 | 7.0 | 0.00 | 0.00 | 0.00 | 75 | 1008.8 |
| 20260506082021 | 65 | 155 | 0.0 | 7.0 | 0.00 | 0.00 | 0.00 | 74 | 1008.7 |
| 20260506081544 | 65 | 0 | 0.0 | 7.0 | 0.00 | 0.00 | 0.00 | 74 | 1008.8 |
| 20260506081021 | 66 | 0 | 0.0 | 3.0 | 0.00 | 0.00 | 0.00 | 74 | 1008.9 |
| 20260506080521 | 66 | 0 | 0.0 | 3.0 | 0.00 | 0.00 | 0.00 | 74 | 1008.9 |
| 20260506073521 | 66 | 0 | 0.0 | 2.0 | 0.00 | 0.00 | 0.00 | 72 | 1008.9 |
| 20260506073059 | 66 | 0 | 0.0 | 2.0 | 0.00 | 0.00 | 0.00 | 72 | 1008.9 |
| 20260506072524 | 66 | 0 | 0.0 | 0.0 | 0.00 | 0.00 | 0.00 | 72 | 1008.9 |
| 20260506072022 | 66 | 0 | 0.0 | 3.0 | 0.00 | 0.00 | 0.00 | 71 | 1008.9 |
| 20260506071537 | 66 | 0 | 0.0 | 3.0 | 0.00 | 0.00 | 0.00 | 71 | 1009.0 |
| 20260506071021 | 66 | 211 | 0.0 | 2.0 | 0.00 | 0.00 | 0.00 | 71 | 1009.0 |
| 20260506070520 | 67 | 0 | 0.0 | 2.0 | 0.00 | 0.00 | 0.00 | 70 | 1009.0 |
| 20260506062021 | 67 | 0 | 0.0 | 3.0 | 0.00 | 0.00 | 0.00 | 68 | 1009.4 |
| 20260506061537 | 67 | 232 | 0.0 | 3.0 | 0.00 | 0.00 | 0.00 | 68 | 1009.4 |
| 20260506061023 | 67 | 0 | 0.0 | 3.0 | 0.00 | 0.00 | 0.00 | 68 | 1009.3 |
| 20260506060521 | 67 | 0 | 0.0 | 2.0 | 0.00 | 0.00 | 0.00 | 68 | 1009.3 |
| 20260506051021 | 68 | 0 | 1.0 | 5.0 | 0.00 | 0.00 | 0.00 | 65 | 1009.7 |
| 20260506050521 | 68 | 0 | 0.0 | 3.0 | 0.00 | 0.00 | 0.00 | 65 | 1009.7 |
| 20260506045021 | 69 | 242 | 0.0 | 5.0 | 0.00 | 0.00 | 0.00 | 64 | 1009.8 |
| 20260506044547 | 69 | 237 | 0.0 | 5.0 | 0.00 | 0.00 | 0.00 | 63 | 1009.9 |
| 20260506044020 | 69 | 189 | 0.0 | 1.0 | 0.00 | 0.00 | 0.00 | 63 | 1009.8 |
| 20260506043520 | 69 | 0 | 0.0 | 3.0 | 0.00 | 0.00 | 0.00 | 63 | 1009.8 |
| 20260506043037 | 69 | 0 | 0.0 | 3.0 | 0.00 | 0.00 | 0.00 | 63 | 1009.8 |
| 20260506042522 | 69 | 0 | 0.0 | 5.0 | 0.00 | 0.00 | 0.00 | 62 | 1009.8 |
| 20260506042021 | 69 | 0 | 0.0 | 5.0 | 0.00 | 0.00 | 0.00 | 62 | 1009.8 |
| 20260506041548 | 69 | 170 | 0.0 | 4.0 | 0.00 | 0.00 | 0.00 | 62 | 1009.8 |
| 20260506041025 | 70 | 0 | 0.0 | 4.0 | 0.00 | 0.00 | 0.00 | 61 | 1009.8 |
| 20260506040525 | 70 | 201 | 0.0 | 6.0 | 0.00 | 0.00 | 0.00 | 61 | 1009.8 |
| 20260506040044 | 70 | 0 | 0.0 | 6.0 | 0.00 | 0.00 | 0.00 | 61 | 1009.7 |
| 20260506035521 | 70 | 0 | 1.0 | 6.0 | 0.00 | 0.00 | 0.00 | 61 | 1009.8 |
| 20260506035021 | 70 | 0 | 1.0 | 5.0 | 0.00 | 0.00 | 0.00 | 60 | 1009.6 |
| 20260506034547 | 70 | 170 | 0.0 | 5.0 | 0.00 | 0.00 | 0.00 | 60 | 1009.6 |
| 20260506034021 | 70 | 0 | 0.0 | 11.0 | 0.00 | 0.00 | 0.00 | 60 | 1009.7 |
| 20260506033521 | 70 | 0 | 1.0 | 11.0 | 0.00 | 0.00 | 0.00 | 60 | 1009.6 |
| 20260506033042 | 70 | 219 | 1.0 | 5.0 | 0.00 | 0.00 | 0.00 | 59 | 1009.6 |
| 20260506032521 | 70 | 0 | 1.0 | 8.0 | 0.00 | 0.00 | 0.00 | 59 | 1009.6 |
| 20260506032022 | 70 | 0 | 1.0 | 8.0 | 0.00 | 0.00 | 0.00 | 59 | 1009.6 |
| 20260506031539 | 70 | 206 | 1.0 | 11.0 | 0.00 | 0.00 | 0.00 | 58 | 1009.6 |
| 20260506031021 | 71 | 257 | 2.0 | 11.0 | 0.00 | 0.00 | 0.00 | 58 | 1009.6 |
| 20260506030524 | 71 | 164 | 1.0 | 6.0 | 0.00 | 0.00 | 0.00 | 58 | 1009.6 |
| 20260506030037 | 71 | 196 | 0.0 | 6.0 | 0.00 | 0.00 | 0.00 | 58 | 1009.6 |
| 20260506025521 | 71 | 226 | 1.0 | 7.0 | 0.00 | 0.00 | 0.00 | 58 | 1009.5 |
| 20260506025020 | 71 | 58 | 1.0 | 8.0 | 0.00 | 0.00 | 0.00 | 58 | 1009.6 |
| 20260506024537 | 71 | 189 | 0.0 | 8.0 | 0.00 | 0.00 | 0.00 | 57 | 1009.5 |
| 20260506024023 | 71 | 0 | 1.0 | 5.0 | 0.00 | 0.00 | 0.00 | 57 | 1009.5 |
| 20260506023521 | 72 | 0 | 0.0 | 8.0 | 0.00 | 0.00 | 0.00 | 56 | 1009.5 |
| 20260506023044 | 72 | 157 | 1.0 | 8.0 | 0.00 | 0.00 | 0.00 | 57 | 1009.5 |
| 20260506022523 | 72 | 33 | 1.0 | 4.0 | 0.00 | 0.00 | 0.00 | 56 | 1009.4 |
| 20260506022022 | 72 | 46 | 0.0 | 3.0 | 0.00 | 0.00 | 0.00 | 56 | 1009.5 |
| 20260506021551 | 72 | 200 | 0.0 | 7.0 | 0.00 | 0.00 | 0.00 | 55 | 1009.4 |
| 20260506021022 | 72 | 226 | 1.0 | 7.0 | 0.00 | 0.00 | 0.00 | 55 | 1009.5 |
| 20260506020523 | 73 | 0 | 1.0 | 7.0 | 0.00 | 0.00 | 0.00 | 55 | 1009.5 |
| 20260506020042 | 73 | 179 | 1.0 | 7.0 | 0.00 | 0.00 | 0.00 | 54 | 1009.3 |
| 20260506015524 | 73 | 75 | 1.0 | 11.0 | 0.00 | 0.00 | 0.00 | 54 | 1009.4 |
| 20260506015021 | 73 | 360 | 1.0 | 11.0 | 0.00 | 0.00 | 0.00 | 53 | 1009.3 |
| 20260506014537 | 73 | 182 | 2.0 | 10.0 | 0.00 | 0.00 | 0.00 | 53 | 1009.2 |
| 20260506014020 | 74 | 207 | 1.0 | 13.0 | 0.00 | 0.00 | 0.00 | 52 | 1009.2 |
| 20260506013522 | 74 | 99 | 2.0 | 13.0 | 0.00 | 0.00 | 0.00 | 51 | 1009.1 |
| 20260506013044 | 74 | 198 | 3.0 | 13.0 | 0.00 | 0.00 | 0.00 | 50 | 1009.2 |
| 20260506012520 | 74 | 30 | 3.0 | 8.0 | 0.00 | 0.00 | 0.00 | 49 | 1009.2 |
| 20260506012023 | 75 | 236 | 1.0 | 9.0 | 0.00 | 0.00 | 0.00 | 48 | 1009.1 |
| 20260506011604 | 75 | 254 | 2.0 | 11.0 | 0.00 | 0.00 | 0.00 | 47 | 1008.9 |
| 20260506011024 | 75 | 221 | 3.0 | 11.0 | 0.00 | 0.00 | 0.00 | 46 | 1008.8 |
| 20260506010523 | 76 | 0 | 2.0 | 7.0 | 0.00 | 0.00 | 0.00 | 45 | 1008.7 |
| 20260506010044 | 76 | 213 | 1.0 | 8.0 | 0.00 | 0.00 | 0.00 | 44 | 1008.8 |
| 20260506005520 | 76 | 227 | 1.0 | 8.0 | 0.00 | 0.00 | 0.00 | 43 | 1008.6 |
| 20260506005021 | 77 | 0 | 1.0 | 8.0 | 0.00 | 0.00 | 0.00 | 43 | 1008.4 |
| 20260506004545 | 77 | 0 | 1.0 | 10.0 | 0.00 | 0.00 | 0.00 | 42 | 1008.3 |
| 20260506004021 | 77 | 0 | 1.0 | 10.0 | 0.00 | 0.00 | 0.00 | 42 | 1008.2 |
| 20260506003521 | 77 | 0 | 2.0 | 10.0 | 0.00 | 0.00 | 0.00 | 42 | 1008.2 |
| 20260506003042 | 77 | 261 | 2.0 | 10.0 | 0.00 | 0.00 | 0.00 | 42 | 1008.2 |
| 20260506002521 | 77 | 0 | 1.0 | 10.0 | 0.00 | 0.00 | 0.00 | 42 | 1008.1 |
| 20260506002022 | 78 | 193 | 2.0 | 7.0 | 0.00 | 0.00 | 0.00 | 42 | 1008.1 |
| 20260506001541 | 78 | 0 | 2.0 | 12.0 | 0.00 | 0.00 | 0.00 | 41 | 1008.0 |
| 20260506001021 | 78 | 214 | 3.0 | 12.0 | 0.00 | 0.00 | 0.00 | 41 | 1008.1 |
| 20260506000521 | 78 | 259 | 3.0 | 12.0 | 0.00 | 0.00 | 0.00 | 41 | 1008.0 |
| 20260506000045 | 78 | 202 | 2.0 | 9.0 | 0.00 | 0.00 | 0.00 | 40 | 1008.0 |
| 20260505235520 | 79 | 282 | 2.0 | 9.0 | 0.00 | 0.00 | 0.00 | 40 | 1008.0 |
| 20260505235020 | 79 | 258 | 2.0 | 8.0 | 0.00 | 0.00 | 0.00 | 39 | 1008.0 |
| 20260505234537 | 79 | 192 | 1.0 | 11.0 | 0.00 | 0.00 | 0.00 | 38 | 1007.9 |
| 20260505234024 | 79 | 206 | 3.0 | 11.0 | 0.00 | 0.00 | 0.00 | 37 | 1007.9 |
| 20260505233522 | 80 | 84 | 2.0 | 10.0 | 0.00 | 0.00 | 0.00 | 36 | 1007.8 |
| 20260505233045 | 80 | 0 | 4.0 | 10.0 | 0.00 | 0.00 | 0.00 | 35 | 1007.8 |
| 20260505232522 | 80 | 247 | 2.0 | 10.0 | 0.00 | 0.00 | 0.00 | 35 | 1007.7 |
| 20260505232021 | 80 | 224 | 4.0 | 13.0 | 0.00 | 0.00 | 0.00 | 34 | 1007.7 |
| 20260505231544 | 81 | 269 | 2.0 | 15.0 | 0.00 | 0.00 | 0.00 | 34 | 1007.5 |
| 20260505231021 | 81 | 173 | 3.0 | 15.0 | 0.00 | 0.00 | 0.00 | 34 | 1007.5 |
| 20260505230521 | 81 | 191 | 4.0 | 17.0 | 0.00 | 0.00 | 0.00 | 33 | 1007.5 |
| 20260505230038 | 81 | 209 | 3.0 | 18.0 | 0.00 | 0.00 | 0.00 | 34 | 1007.3 |
| 20260505225524 | 81 | 221 | 5.0 | 18.0 | 0.00 | 0.00 | 0.00 | 33 | 1007.3 |
| 20260505225021 | 81 | 233 | 5.0 | 13.0 | 0.00 | 0.00 | 0.00 | 33 | 1007.2 |
| 20260505224538 | 81 | 143 | 4.0 | 11.0 | 0.00 | 0.00 | 0.00 | 33 | 1007.2 |
| 20260505224020 | 82 | 0 | 2.0 | 10.0 | 0.00 | 0.00 | 0.00 | 33 | 1007.2 |
| 20260505223521 | 82 | 232 | 1.0 | 11.0 | 0.00 | 0.00 | 0.00 | 32 | 1007.1 |
| 20260505223037 | 82 | 166 | 3.0 | 14.0 | 0.00 | 0.00 | 0.00 | 32 | 1007.2 |
| 20260505222520 | 82 | 200 | 3.0 | 15.0 | 0.00 | 0.00 | 0.00 | 31 | 1007.2 |
| 20260505222023 | 82 | 221 | 3.0 | 17.0 | 0.00 | 0.00 | 0.00 | 31 | 1007.4 |
| 20260505221536 | 82 | 219 | 8.0 | 20.0 | 0.00 | 0.00 | 0.00 | 30 | 1007.2 |
| 20260505221021 | 82 | 181 | 4.0 | 20.0 | 0.00 | 0.00 | 0.00 | 30 | 1007.2 |
| 20260505220520 | 82 | 210 | 4.0 | 16.0 | 0.00 | 0.00 | 0.00 | 30 | 1007.3 |
| 20260505220052 | 82 | 230 | 4.0 | 18.0 | 0.00 | 0.00 | 0.00 | 29 | 1007.2 |
| 20260505215520 | 82 | 190 | 6.0 | 25.0 | 0.00 | 0.00 | 0.00 | 29 | 1007.3 |
| 20260505215020 | 83 | 307 | 6.0 | 25.0 | 0.00 | 0.00 | 0.00 | 28 | 1007.2 |
| 20260505214550 | 84 | 202 | 3.0 | 20.0 | 0.00 | 0.00 | 0.00 | 28 | 1007.0 |
| 20260505214020 | 84 | 239 | 2.0 | 14.0 | 0.00 | 0.00 | 0.00 | 28 | 1007.0 |
| 20260505213521 | 84 | 232 | 4.0 | 14.0 | 0.00 | 0.00 | 0.00 | 27 | 1006.8 |
| 20260505213039 | 84 | 140 | 4.0 | 14.0 | 0.00 | 0.00 | 0.00 | 27 | 1006.8 |
| 20260505212521 | 84 | 240 | 4.0 | 15.0 | 0.00 | 0.00 | 0.00 | 28 | 1006.8 |
| 20260505212021 | 85 | 207 | 5.0 | 17.0 | 0.00 | 0.00 | 0.00 | 27 | 1006.9 |
| 20260505211540 | 85 | 188 | 3.0 | 18.0 | 0.00 | 0.00 | 0.00 | 28 | 1006.9 |
| 20260505211020 | 85 | 269 | 7.0 | 19.0 | 0.00 | 0.00 | 0.00 | 28 | 1006.8 |
| 20260505210520 | 85 | 208 | 8.0 | 19.0 | 0.00 | 0.00 | 0.00 | 27 | 1006.9 |
| 20260505210045 | 85 | 205 | 6.0 | 21.0 | 0.00 | 0.00 | 0.00 | 28 | 1006.9 |
| 20260505205524 | 86 | 215 | 8.0 | 21.0 | 0.00 | 0.00 | 0.00 | 28 | 1006.8 |
| 20260505205022 | 86 | 236 | 4.0 | 15.0 | 0.00 | 0.00 | 0.00 | 29 | 1006.9 |
| 20260505204545 | 85 | 207 | 5.0 | 15.0 | 0.00 | 0.00 | 0.00 | 29 | 1006.8 |
| 20260505204021 | 85 | 209 | 5.0 | 12.0 | 0.00 | 0.00 | 0.00 | 30 | 1006.8 |
| 20260505203521 | 84 | 70 | 5.0 | 19.0 | 0.00 | 0.00 | 0.00 | 31 | 1006.8 |
| 20260505203043 | 85 | 205 | 9.0 | 19.0 | 0.00 | 0.00 | 0.00 | 30 | 1006.9 |
| 20260505202520 | 85 | 232 | 7.0 | 17.0 | 0.00 | 0.00 | 0.00 | 30 | 1007.1 |
| 20260505202022 | 85 | 225 | 5.0 | 18.0 | 0.00 | 0.00 | 0.00 | 31 | 1007.0 |
| 20260505201546 | 85 | 213 | 6.0 | 22.0 | 0.00 | 0.00 | 0.00 | 30 | 1007.0 |
| 20260505201022 | 85 | 217 | 3.0 | 22.0 | 0.00 | 0.00 | 0.00 | 30 | 1007.1 |
| 20260505200522 | 85 | 210 | 7.0 | 22.0 | 0.00 | 0.00 | 0.00 | 31 | 1007.0 |
| 20260505200040 | 85 | 274 | 5.0 | 26.0 | 0.00 | 0.00 | 0.00 | 31 | 1007.1 |
| 20260505195522 | 85 | 195 | 9.0 | 26.0 | 0.00 | 0.00 | 0.00 | 30 | 1007.1 |
| 20260505195022 | 85 | 207 | 6.0 | 18.0 | 0.00 | 0.00 | 0.00 | 31 | 1007.1 |
| 20260505194538 | 85 | 208 | 6.0 | 18.0 | 0.00 | 0.00 | 0.00 | 31 | 1007.1 |
| 20260505194027 | 85 | 197 | 5.0 | 19.0 | 0.00 | 0.00 | 0.00 | 31 | 1007.1 |
| 20260505193522 | 85 | 184 | 8.0 | 19.0 | 0.00 | 0.00 | 0.00 | 30 | 1007.2 |
| 20260505193042 | 86 | 259 | 4.0 | 18.0 | 0.00 | 0.00 | 0.00 | 31 | 1007.2 |
| 20260505192522 | 85 | 198 | 8.0 | 20.0 | 0.00 | 0.00 | 0.00 | 31 | 1007.3 |
| 20260505192022 | 86 | 142 | 7.0 | 20.0 | 0.00 | 0.00 | 0.00 | 30 | 1007.3 |
| 20260505191537 | 85 | 214 | 5.0 | 20.0 | 0.00 | 0.00 | 0.00 | 31 | 1007.4 |
| 20260505191022 | 85 | 204 | 9.0 | 20.0 | 0.00 | 0.00 | 0.00 | 30 | 1007.5 |
| 20260505190526 | 85 | 238 | 6.0 | 18.0 | 0.00 | 0.00 | 0.00 | 32 | 1007.5 |
| 20260505190043 | 86 | 171 | 3.0 | 18.0 | 0.00 | 0.00 | 0.00 | 32 | 1007.6 |
| 20260505185522 | 86 | 290 | 5.0 | 18.0 | 0.00 | 0.00 | 0.00 | 32 | 1007.7 |
| 20260505185024 | 86 | 215 | 4.0 | 18.0 | 0.00 | 0.00 | 0.00 | 34 | 1007.7 |
| 20260505184548 | 85 | 200 | 9.0 | 18.0 | 0.00 | 0.00 | 0.00 | 33 | 1007.6 |
| 20260505184022 | 85 | 71 | 5.0 | 17.0 | 0.00 | 0.00 | 0.00 | 34 | 1007.9 |
| 20260505183523 | 85 | 234 | 4.0 | 16.0 | 0.00 | 0.00 | 0.00 | 34 | 1007.9 |
| 20260505183047 | 85 | 205 | 4.0 | 16.0 | 0.00 | 0.00 | 0.00 | 35 | 1008.0 |
| 20260505182524 | 85 | 235 | 3.0 | 17.0 | 0.00 | 0.00 | 0.00 | 35 | 1008.0 |
| 20260505182022 | 85 | 202 | 6.0 | 17.0 | 0.00 | 0.00 | 0.00 | 34 | 1008.0 |
| 20260505181536 | 85 | 149 | 4.0 | 11.0 | 0.00 | 0.00 | 0.00 | 34 | 1008.0 |
| 20260505181025 | 85 | 185 | 5.0 | 13.0 | 0.00 | 0.00 | 0.00 | 33 | 1008.1 |
| 20260505180522 | 85 | 170 | 4.0 | 13.0 | 0.00 | 0.00 | 0.00 | 35 | 1008.2 |
| 20260505180044 | 85 | 220 | 4.0 | 16.0 | 0.00 | 0.00 | 0.00 | 35 | 1008.2 |
| 20260505175522 | 84 | 196 | 4.0 | 16.0 | 0.00 | 0.00 | 0.00 | 36 | 1008.3 |
| 20260505175022 | 84 | 284 | 4.0 | 11.0 | 0.00 | 0.00 | 0.00 | 36 | 1008.3 |
| 20260505174543 | 84 | 22 | 2.0 | 18.0 | 0.00 | 0.00 | 0.00 | 39 | 1008.4 |
| 20260505174021 | 84 | 200 | 3.0 | 18.0 | 0.00 | 0.00 | 0.00 | 39 | 1008.6 |
| 20260505173521 | 85 | 225 | 4.0 | 18.0 | 0.00 | 0.00 | 0.00 | 38 | 1008.6 |
| 20260505173039 | 84 | 258 | 3.0 | 10.0 | 0.00 | 0.00 | 0.00 | 38 | 1008.6 |